Aeroporto :
LOGIN :

Iscrizione | Disclaimer

   EN    FR    IT 

 










Sommario :    VFR   VFR Marginale   IFR   IFR Intensivo   IFR Molto Intensivo
Visibilità : 
Base nubi : 
>= 8 km
>= 3000ft
5 / 8 km
1000 / 3000 ft
1500m / 5 km
500 / 1000 ft
800 / 1500m
200 / 500 ft
< 800m
< 200 ft
Simboli :   Temporali  Nebbia  Neve Forte  Precipitazioni Forti  Vento > 20 kt
SIGMETs :   Varie  Temporali  Ghiacco  Turbolenza  Onda orograficha  Ceneri Vulcaniche







- Altitudine del aeroporto : 796 ft
- Codice IATA : SYT
- Carte del aeroporto


LFLN - Saint-Yan

ULTIMO METAR :
  • 170630Z AUTO 00000KT 2500 BR VV/// 13/13 Q1019 BECMG CAVOK

METARs OBSOLETI :
  • 170600Z AUTO 00000KT 1000 0600 R33/1200D BCFG VV/// 11/11 Q1019 BECMG CAVOK
  • 170530Z AUTO 00000KT 0500 0450 R33/0900U FG VV/// 10/10 Q1019 BECMG CAVOK
  • 170500Z AUTO VRB01KT 0300 R33/0350N FG VV/// 10/10 Q1019
  • 170430Z AUTO 00000KT 0250 R33/0375U FG VV/// 08/08 Q1019
  • 170400Z AUTO 14003KT 0600 0550 R33/0650D FG VV/// 08/08 Q1019

TAF TAF LFLN
Valido dal 17 a 06 ore il 17 a 15 ore UTC


170500Z 1706/1715 VRB03KT 0300 FG VV///
BECMG 1706/1709 CAVOK
Nessun NOTAM noto per questo aeroporto.



MetMap, La meteo Aeronautica in un colpo d'occhio ! - Copyright ORBIFLY Dicembre 2007 - Disclaimer

ORBIFLY MET'MAP TEAM :

Programmazione e sviluppo : Alexandra Zaïnal
Concezione e sviluppo : Baudouin d'Aumeries
Co-Programmazione e sviluppo : Marc-Olivier Méhu
Supporto tecnico e logistico : Manuel Goepfert
Aiuto per la traduzione : Arnaldo La Scala

Contatto : metmap@orbifly.com




FONTI E CREDITI :

   NOAA